Buoy 53593

sailwx.info

Track history (hours):
 
Tides and Currents Weather Stations Pressure Air Temp Water Temp Dewpoint Dewpoint Depression Visibility Wind Speed Wind Dir Waves Ship Positions

Drifting buoy 53593

Last reported at 2013-Oct-27 07:19 UTC. Time now 2014-Oct-25 21:10 UTC.
Position N 15°12' E 136°50'.
Warning: this ship's position is months out of date.

Water temperature 29.3 ° C

Date/timePositionNaut miles runAvg speedWind from/ knotsBaromVisibWave heightAir tempDewpointWater temp
2013-Oct-27 07:19N 15°12' E 136°50'0 0.0 29.3
2013-Oct-26 12:12N 15°12' E 136°50'0 0.0 29.3
2013-Oct-26 11:32N 15°12' E 136°50'0 0.0 29.3
2013-Oct-26 06:42N 15°12' E 136°50'0 0.0 29.7
2013-Oct-26 05:53N 15°12' E 136°50'5108.4 29.7
2013-Oct-26 05:50N 15°16' E 136°47'0 0.0 29.7
2013-Oct-25 11:43N 15°16' E 136°47'0 0.0 29.0
2013-Oct-24 23:42N 15°17' E 136°47'0 0.1 28.9
2013-Oct-24 20:36N 15°17' E 136°47'0 0.4 28.9
2013-Oct-24 19:57N 15°17' E 136°47'0 0.0 28.9
2013-Oct-24 18:55N 15°17' E 136°47'6115.1 28.9
2013-Oct-24 18:52N 15°20' E 136°42'0 0.0 28.9
2013-Oct-24 11:12N 15°20' E 136°42'0 0.0 29.0
2013-Oct-24 04:04N 15°20' E 136°42'1 0.2 29.4
2013-Oct-24 00:58N 15°20' E 136°41'0 0.1 29.0
2013-Oct-23 21:08N 15°20' E 136°41'1 0.7 28.9
2013-Oct-23 20:22N 15°20' E 136°40'0 0.0 28.9
2013-Oct-23 19:28N 15°20' E 136°40'0 0.0 28.9
2013-Oct-23 19:02N 15°20' E 136°40'1 2.9 28.9
2013-Oct-23 18:43N 15°19' E 136°40'0 0.0 28.9
2013-Oct-23 17:21N 15°19' E 136°40'0 0.0 29.0
2013-Oct-23 16:51N 15°19' E 136°40'0 0.0 29.0
2013-Oct-23 16:48N 15°19' E 136°40'1 0.1 29.0
2013-Oct-23 12:28N 15°18' E 136°40'0 0.0 29.1
2013-Oct-23 12:08N 15°18' E 136°40'0 0.0 29.1
2013-Oct-23 11:36N 15°18' E 136°40'0 0.0 29.1
2013-Oct-23 08:19N 15°18' E 136°40'0 0.0 29.2
2013-Oct-23 07:55N 15°18' E 136°40'1 0.1 29.2
2013-Oct-23 00:25N 15°18' E 136°40'0 0.0 29.0
2013-Oct-22 23:16N 15°18' E 136°40'0 0.1 28.9
2013-Oct-22 20:00N 15°17' E 136°41'1 0.7 28.9
2013-Oct-22 19:13N 15°18' E 136°40'0 0.0 28.9
2013-Oct-22 19:09N 15°18' E 136°40'1 0.5 28.9
2013-Oct-22 17:36N 15°18' E 136°40'0 0.0 28.9
2013-Oct-22 17:05N 15°18' E 136°40'1 6.7 28.9
2013-Oct-22 16:59N 15°19' E 136°39'0 0.0 28.9
2013-Oct-22 12:22N 15°19' E 136°39'2 5.2 28.9
2013-Oct-22 11:58N 15°20' E 136°38'0 0.0 28.9
2013-Oct-22 10:39N 15°20' E 136°38'0 0.0 29.0
2013-Oct-22 08:58N 15°20' E 136°38'561.8 29.0
2013-Oct-22 08:53N 15°20' E 136°32'0 0.0 29.0
2013-Oct-22 08:20N 15°20' E 136°32'0 0.0 29.0
2013-Oct-22 06:39N 15°20' E 136°32'0 0.1 29.1
2013-Oct-22 04:27N 15°20' E 136°32'1 0.3 29.1
2013-Oct-22 00:47N 15°19' E 136°31'1 0.7 29.0
2013-Oct-21 23:59N 15°19' E 136°31'0 0.0 29.0
2013-Oct-21 23:27N 15°19' E 136°31'236.0 29.0
2013-Oct-21 23:24N 15°18' E 136°30'1 0.2 29.0
2013-Oct-21 20:31N 15°17' E 136°29'0 0.0 28.9
2013-Oct-21 19:35N 15°17' E 136°29'330.3 29.0
2013-Oct-21 19:30N 15°15' E 136°29'0 0.0 29.0
2013-Oct-21 19:25N 15°15' E 136°29'0 0.0 29.0
2013-Oct-21 17:07N 15°15' E 136°29'0 0.0 29.0
2013-Oct-21 12:28N 15°15' E 136°29'0 0.0 29.0
2013-Oct-21 12:20N 15°15' E 136°29'0 0.0 29.0
2013-Oct-21 10:53N 15°15' E 136°29'1 0.8 29.0
2013-Oct-21 09:25N 15°15' E 136°28'0 0.0 29.0
2013-Oct-21 07:06N 15°15' E 136°28'1 3.6 29.0
2013-Oct-21 06:51N 15°16' E 136°28'0 0.0 29.0
2013-Oct-21 05:07N 15°16' E 136°28'0 0.0 29.0
2013-Oct-21 04:36N 15°16' E 136°28'2 0.7 29.0
2013-Oct-21 01:07N 15°17' E 136°26'0 0.0 28.9
2013-Oct-21 00:18N 15°17' E 136°26'0 0.7 28.9
2013-Oct-20 23:37N 15°17' E 136°26'0 0.0 28.9
2013-Oct-20 23:24N 15°17' E 136°26'1 0.3 28.9
2013-Oct-20 21:01N 15°17' E 136°25'0 0.0 28.9
2013-Oct-20 20:00N 15°17' E 136°25'2 3.0 28.9
2013-Oct-20 19:23N 15°19' E 136°24'0 0.0 28.9
2013-Oct-20 17:57N 15°19' E 136°24'782.7 28.9
2013-Oct-20 17:52N 15°20' E 136°17'0 0.0 28.9
2013-Oct-20 17:18N 15°20' E 136°17'0 0.0 28.9
2013-Oct-20 15:37N 15°20' E 136°17'0 0.0 28.9
2013-Oct-20 12:40N 15°20' E 136°17'0 0.0 28.9
2013-Oct-20 11:51N 15°20' E 136°17'0 0.0
2013-Oct-20 11:06N 15°20' E 136°17'1 0.3 28.9
2013-Oct-20 08:15N 15°20' E 136°16'0 0.2 29.0
2013-Oct-20 07:27N 15°20' E 136°16'2 0.8 29.0
2013-Oct-20 04:46N 15°20' E 136°14'230.4 28.9
2013-Oct-20 04:42N 15°20' E 136°12'0 0.0 28.9
2013-Oct-20 03:07N 15°20' E 136°12'0 0.0 28.9
2013-Oct-20 00:45N 15°20' E 136°12'0 7.3 28.9
2013-Oct-20 00:42N 15°20' E 136°11'2 1.7 28.9
2013-Oct-19 23:49N 15°22' E 136°10'0 0.0 28.9
2013-Oct-19 23:46N 15°22' E 136°10'0 0.0 28.9
2013-Oct-19 21:27N 15°22' E 136°10'0 0.0 28.9
2013-Oct-19 20:19N 15°22' E 136°10'0 0.0 28.9
2013-Oct-19 19:52N 15°22' E 136°10'0 0.0 28.9
2013-Oct-19 18:43N 15°22' E 136°10'2 3.7 28.9
2013-Oct-19 18:04N 15°24' E 136°10'0 0.0 28.9
2013-Oct-19 17:26N 15°24' E 136°10'0 0.0 28.9
2013-Oct-19 15:54N 15°24' E 136°10'0 0.0 28.9
2013-Oct-19 15:51N 15°24' E 136°10'471.1 28.9
2013-Oct-19 15:48N 15°27' E 136°12'0 0.0 28.9
2013-Oct-19 12:55N 15°27' E 136°12'1 0.3 28.9
2013-Oct-19 11:17N 15°27' E 136°13'2 0.9 28.9
2013-Oct-19 08:50N 15°30' E 136°13'0 1.7 29.0
2013-Oct-19 08:47N 15°30' E 136°13'3 1.1 29.0
2013-Oct-19 05:32N 15°33' E 136°14'565.6 29.0
2013-Oct-19 05:27N 15°39' E 136°15'0 0.0 29.0
2013-Oct-19 04:49N 15°39' E 136°15'0 0.0
2013-Oct-19 03:15N 15°39' E 136°15'4 1.2 29.0
2013-Oct-19 00:08N 15°42' E 136°16'0 0.0 29.0
2013-Oct-19 00:05N 15°42' E 136°16'1 0.3 29.0
2013-Oct-18 20:23N 15°43' E 136°16'0 0.0 29.0
2013-Oct-18 19:10N 15°43' E 136°16'2 0.5 29.0
2013-Oct-18 16:03N 15°45' E 136°17'233.0 29.0
2013-Oct-18 16:00N 15°46' E 136°17'0 0.1 29.0
2013-Oct-18 11:26N 15°46' E 136°18'141.5 29.0
2013-Oct-18 11:24N 15°47' E 136°18'0 0.0 29.1
2013-Oct-18 09:19N 15°47' E 136°18'0 0.0 29.1
2013-Oct-18 08:17N 15°47' E 136°18'124.4 29.1
2013-Oct-18 08:14N 15°48' E 136°19'0 0.0 29.1
2013-Oct-18 06:35N 15°48' E 136°19'0 0.0 29.1
2013-Oct-18 05:43N 15°48' E 136°19'338.0 29.1
2013-Oct-18 05:38N 15°51' E 136°21'0 0.0 29.2
2013-Oct-18 05:07N 15°51' E 136°21'0 0.0 29.2
2013-Oct-18 03:26N 15°51' E 136°21'0 0.0 29.2
2013-Oct-18 00:16N 15°51' E 136°21'3 1.0 29.1
2013-Oct-17 20:56N 15°52' E 136°25'0 0.0 29.0
2013-Oct-17 19:33N 15°52' E 136°25'0 0.0 29.0
2013-Oct-17 18:33N 15°52' E 136°25'2 0.9 29.0
2013-Oct-17 16:14N 15°52' E 136°27'0 0.1 29.0
2013-Oct-17 12:00N 15°52' E 136°28'0 0.0 29.1
2013-Oct-17 11:40N 15°52' E 136°28'6126.6 29.1
2013-Oct-17 11:37N 15°56' E 136°33'0 0.0 29.1
2013-Oct-17 08:40N 15°56' E 136°33'0 0.0 29.1
2013-Oct-17 08:15N 15°56' E 136°33'   29.1
Track history (hours):
 
Tides and Currents Weather Stations Pressure Air Temp Water Temp Dewpoint Dewpoint Depression Visibility Wind Speed Wind Dir Waves Ship Positions

Drifting buoy 53593

Last reported at 2013-Oct-27 07:19 UTC. Time now 2014-Oct-25 21:10 UTC.
Position N 15°12' E 136°50'.
Warning: this ship's position is months out of date.

Water temperature 29.3 ° C

Date/timePositionNaut miles runAvg speedWind from/ knotsBaromVisibWave heightAir tempDewpointWater temp
2013-Oct-27 07:19N 15°12' E 136°50'0 0.0 29.3
2013-Oct-26 12:12N 15°12' E 136°50'0 0.0 29.3
2013-Oct-26 11:32N 15°12' E 136°50'0 0.0 29.3
2013-Oct-26 06:42N 15°12' E 136°50'0 0.0 29.7
2013-Oct-26 05:53N 15°12' E 136°50'5108.4 29.7
2013-Oct-26 05:50N 15°16' E 136°47'0 0.0 29.7
2013-Oct-25 11:43N 15°16' E 136°47'0 0.0 29.0
2013-Oct-24 23:42N 15°17' E 136°47'0 0.1 28.9
2013-Oct-24 20:36N 15°17' E 136°47'0 0.4 28.9
2013-Oct-24 19:57N 15°17' E 136°47'0 0.0 28.9
2013-Oct-24 18:55N 15°17' E 136°47'6115.1 28.9
2013-Oct-24 18:52N 15°20' E 136°42'0 0.0 28.9
2013-Oct-24 11:12N 15°20' E 136°42'0 0.0 29.0
2013-Oct-24 04:04N 15°20' E 136°42'1 0.2 29.4
2013-Oct-24 00:58N 15°20' E 136°41'0 0.1 29.0
2013-Oct-23 21:08N 15°20' E 136°41'1 0.7 28.9
2013-Oct-23 20:22N 15°20' E 136°40'0 0.0 28.9
2013-Oct-23 19:28N 15°20' E 136°40'0 0.0 28.9
2013-Oct-23 19:02N 15°20' E 136°40'1 2.9 28.9
2013-Oct-23 18:43N 15°19' E 136°40'0 0.0 28.9
2013-Oct-23 17:21N 15°19' E 136°40'0 0.0 29.0
2013-Oct-23 16:51N 15°19' E 136°40'0 0.0 29.0
2013-Oct-23 16:48N 15°19' E 136°40'1 0.1 29.0
2013-Oct-23 12:28N 15°18' E 136°40'0 0.0 29.1
2013-Oct-23 12:08N 15°18' E 136°40'0 0.0 29.1
2013-Oct-23 11:36N 15°18' E 136°40'0 0.0 29.1
2013-Oct-23 08:19N 15°18' E 136°40'0 0.0 29.2
2013-Oct-23 07:55N 15°18' E 136°40'1 0.1 29.2
2013-Oct-23 00:25N 15°18' E 136°40'0 0.0 29.0
2013-Oct-22 23:16N 15°18' E 136°40'0 0.1 28.9
2013-Oct-22 20:00N 15°17' E 136°41'1 0.7 28.9
2013-Oct-22 19:13N 15°18' E 136°40'0 0.0 28.9
2013-Oct-22 19:09N 15°18' E 136°40'1 0.5 28.9
2013-Oct-22 17:36N 15°18' E 136°40'0 0.0 28.9
2013-Oct-22 17:05N 15°18' E 136°40'1 6.7 28.9
2013-Oct-22 16:59N 15°19' E 136°39'0 0.0 28.9
2013-Oct-22 12:22N 15°19' E 136°39'2 5.2 28.9
2013-Oct-22 11:58N 15°20' E 136°38'0 0.0 28.9
2013-Oct-22 10:39N 15°20' E 136°38'0 0.0 29.0
2013-Oct-22 08:58N 15°20' E 136°38'561.8 29.0
2013-Oct-22 08:53N 15°20' E 136°32'0 0.0 29.0
2013-Oct-22 08:20N 15°20' E 136°32'0 0.0 29.0
2013-Oct-22 06:39N 15°20' E 136°32'0 0.1 29.1
2013-Oct-22 04:27N 15°20' E 136°32'1 0.3 29.1
2013-Oct-22 00:47N 15°19' E 136°31'1 0.7 29.0
2013-Oct-21 23:59N 15°19' E 136°31'0 0.0 29.0
2013-Oct-21 23:27N 15°19' E 136°31'236.0 29.0
2013-Oct-21 23:24N 15°18' E 136°30'1 0.2 29.0
2013-Oct-21 20:31N 15°17' E 136°29'0 0.0 28.9
2013-Oct-21 19:35N 15°17' E 136°29'330.3 29.0
2013-Oct-21 19:30N 15°15' E 136°29'0 0.0 29.0
2013-Oct-21 19:25N 15°15' E 136°29'0 0.0 29.0
2013-Oct-21 17:07N 15°15' E 136°29'0 0.0 29.0
2013-Oct-21 12:28N 15°15' E 136°29'0 0.0 29.0
2013-Oct-21 12:20N 15°15' E 136°29'0 0.0 29.0
2013-Oct-21 10:53N 15°15' E 136°29'1 0.8 29.0
2013-Oct-21 09:25N 15°15' E 136°28'0 0.0 29.0
2013-Oct-21 07:06N 15°15' E 136°28'1 3.6 29.0
2013-Oct-21 06:51N 15°16' E 136°28'0 0.0 29.0
2013-Oct-21 05:07N 15°16' E 136°28'0 0.0 29.0
2013-Oct-21 04:36N 15°16' E 136°28'2 0.7 29.0
2013-Oct-21 01:07N 15°17' E 136°26'0 0.0 28.9
2013-Oct-21 00:18N 15°17' E 136°26'0 0.7 28.9
2013-Oct-20 23:37N 15°17' E 136°26'0 0.0 28.9
2013-Oct-20 23:24N 15°17' E 136°26'1 0.3 28.9
2013-Oct-20 21:01N 15°17' E 136°25'0 0.0 28.9
2013-Oct-20 20:00N 15°17' E 136°25'2 3.0 28.9
2013-Oct-20 19:23N 15°19' E 136°24'0 0.0 28.9
2013-Oct-20 17:57N 15°19' E 136°24'782.7 28.9
2013-Oct-20 17:52N 15°20' E 136°17'0 0.0 28.9
2013-Oct-20 17:18N 15°20' E 136°17'0 0.0 28.9
2013-Oct-20 15:37N 15°20' E 136°17'0 0.0 28.9
2013-Oct-20 12:40N 15°20' E 136°17'0 0.0 28.9
2013-Oct-20 11:51N 15°20' E 136°17'0 0.0
2013-Oct-20 11:06N 15°20' E 136°17'1 0.3 28.9
2013-Oct-20 08:15N 15°20' E 136°16'0 0.2 29.0
2013-Oct-20 07:27N 15°20' E 136°16'2 0.8 29.0
2013-Oct-20 04:46N 15°20' E 136°14'230.4 28.9
2013-Oct-20 04:42N 15°20' E 136°12'0 0.0 28.9
2013-Oct-20 03:07N 15°20' E 136°12'0 0.0 28.9
2013-Oct-20 00:45N 15°20' E 136°12'0 7.3 28.9
2013-Oct-20 00:42N 15°20' E 136°11'2 1.7 28.9
2013-Oct-19 23:49N 15°22' E 136°10'0 0.0 28.9
2013-Oct-19 23:46N 15°22' E 136°10'0 0.0 28.9
2013-Oct-19 21:27N 15°22' E 136°10'0 0.0 28.9
2013-Oct-19 20:19N 15°22' E 136°10'0 0.0 28.9
2013-Oct-19 19:52N 15°22' E 136°10'0 0.0 28.9
2013-Oct-19 18:43N 15°22' E 136°10'2 3.7 28.9
2013-Oct-19 18:04N 15°24' E 136°10'0 0.0 28.9
2013-Oct-19 17:26N 15°24' E 136°10'0 0.0 28.9
2013-Oct-19 15:54N 15°24' E 136°10'0 0.0 28.9
2013-Oct-19 15:51N 15°24' E 136°10'471.1 28.9
2013-Oct-19 15:48N 15°27' E 136°12'0 0.0 28.9
2013-Oct-19 12:55N 15°27' E 136°12'1 0.3 28.9
2013-Oct-19 11:17N 15°27' E 136°13'2 0.9 28.9
2013-Oct-19 08:50N 15°30' E 136°13'0 1.7 29.0
2013-Oct-19 08:47N 15°30' E 136°13'3 1.1 29.0
2013-Oct-19 05:32N 15°33' E 136°14'565.6 29.0
2013-Oct-19 05:27N 15°39' E 136°15'0 0.0 29.0
2013-Oct-19 04:49N 15°39' E 136°15'0 0.0
2013-Oct-19 03:15N 15°39' E 136°15'4 1.2 29.0
2013-Oct-19 00:08N 15°42' E 136°16'0 0.0 29.0
2013-Oct-19 00:05N 15°42' E 136°16'1 0.3 29.0
2013-Oct-18 20:23N 15°43' E 136°16'0 0.0 29.0
2013-Oct-18 19:10N 15°43' E 136°16'2 0.5 29.0
2013-Oct-18 16:03N 15°45' E 136°17'233.0 29.0
2013-Oct-18 16:00N 15°46' E 136°17'0 0.1 29.0
2013-Oct-18 11:26N 15°46' E 136°18'141.5 29.0
2013-Oct-18 11:24N 15°47' E 136°18'0 0.0 29.1
2013-Oct-18 09:19N 15°47' E 136°18'0 0.0 29.1
2013-Oct-18 08:17N 15°47' E 136°18'124.4 29.1
2013-Oct-18 08:14N 15°48' E 136°19'0 0.0 29.1
2013-Oct-18 06:35N 15°48' E 136°19'0 0.0 29.1
2013-Oct-18 05:43N 15°48' E 136°19'338.0 29.1
2013-Oct-18 05:38N 15°51' E 136°21'0 0.0 29.2
2013-Oct-18 05:07N 15°51' E 136°21'0 0.0 29.2
2013-Oct-18 03:26N 15°51' E 136°21'0 0.0 29.2
2013-Oct-18 00:16N 15°51' E 136°21'3 1.0 29.1
2013-Oct-17 20:56N 15°52' E 136°25'0 0.0 29.0
2013-Oct-17 19:33N 15°52' E 136°25'0 0.0 29.0
2013-Oct-17 18:33N 15°52' E 136°25'2 0.9 29.0
2013-Oct-17 16:14N 15°52' E 136°27'0 0.1 29.0
2013-Oct-17 12:00N 15°52' E 136°28'0 0.0 29.1
2013-Oct-17 11:40N 15°52' E 136°28'6126.6 29.1
2013-Oct-17 11:37N 15°56' E 136°33'0 0.0 29.1
2013-Oct-17 08:40N 15°56' E 136°33'0 0.0 29.1
2013-Oct-17 08:15N 15°56' E 136°33'   29.1

Dump ship's entire track history